createdAt,value
2019-03-17T00:02:08.092Z,7.40
2019-03-17T00:04:36.080Z,7.40
2019-03-17T00:07:04.045Z,7.40
2019-03-17T00:09:32.645Z,7.30
2019-03-17T00:12:00.600Z,7.20
2019-03-17T00:14:28.754Z,7.10
2019-03-17T00:16:56.488Z,7.00
2019-03-17T00:19:24.057Z,6.90
2019-03-17T00:21:52.327Z,6.90
2019-03-17T00:24:20.314Z,6.80
2019-03-17T00:26:49.344Z,6.80
2019-03-17T00:29:17.299Z,6.80
2019-03-17T00:31:45.432Z,6.90
2019-03-17T00:34:13.200Z,6.80
2019-03-17T00:36:41.287Z,6.80
2019-03-17T00:39:08.939Z,6.80
2019-03-17T00:41:37.000Z,6.60
2019-03-17T00:44:04.996Z,6.60
2019-03-17T00:46:36.130Z,6.70
2019-03-17T00:49:03.937Z,6.80
2019-03-17T00:51:31.987Z,6.80
2019-03-17T00:53:59.856Z,6.70
2019-03-17T00:56:27.742Z,6.70
2019-03-17T00:58:55.486Z,6.50
2019-03-17T01:01:23.195Z,6.60
2019-03-17T01:03:51.059Z,6.50
2019-03-17T01:06:18.998Z,6.50
2019-03-17T01:08:46.877Z,6.50
2019-03-17T01:11:15.090Z,6.50
2019-03-17T01:13:43.071Z,6.60
2019-03-17T01:16:11.183Z,6.60
2019-03-17T01:18:39.461Z,6.60
2019-03-17T01:21:07.375Z,6.50
2019-03-17T01:23:35.111Z,6.50
2019-03-17T01:26:03.043Z,6.50
2019-03-17T01:28:30.705Z,6.50
2019-03-17T01:30:58.327Z,6.40
2019-03-17T01:33:26.355Z,6.30
2019-03-17T01:35:54.386Z,6.20
2019-03-17T01:38:22.336Z,6.20
2019-03-17T01:40:50.218Z,6.20
2019-03-17T01:43:18.057Z,6.20
2019-03-17T01:45:46.170Z,6.20
2019-03-17T01:48:13.984Z,6.20
2019-03-17T01:50:41.927Z,6.20
2019-03-17T01:53:09.685Z,6.10
2019-03-17T01:55:37.451Z,6.20
2019-03-17T01:58:05.282Z,6.10
2019-03-17T02:00:33.997Z,6.00
2019-03-17T02:03:01.856Z,6.00
2019-03-17T02:05:29.709Z,5.90
2019-03-17T02:07:57.443Z,5.80
2019-03-17T02:10:25.258Z,5.80
2019-03-17T02:12:53.149Z,5.80
2019-03-17T02:15:21.417Z,5.80
2019-03-17T02:17:49.597Z,5.80
2019-03-17T02:20:17.190Z,5.70
2019-03-17T02:22:44.815Z,5.70
2019-03-17T02:25:12.612Z,5.60
2019-03-17T02:27:40.318Z,5.50
2019-03-17T02:30:09.054Z,5.40
2019-03-17T02:32:36.898Z,5.40
2019-03-17T02:35:05.289Z,5.40
2019-03-17T02:37:33.303Z,5.40
2019-03-17T02:40:01.150Z,5.40
2019-03-17T02:42:28.888Z,5.50
2019-03-17T02:44:56.748Z,5.60
2019-03-17T02:47:24.640Z,5.60
2019-03-17T02:49:52.449Z,5.60
2019-03-17T02:52:20.101Z,5.50
2019-03-17T02:54:47.733Z,5.50
2019-03-17T02:57:16.346Z,5.40
2019-03-17T02:59:44.295Z,5.40
2019-03-17T03:02:11.965Z,5.30
2019-03-17T03:04:39.745Z,5.40
2019-03-17T03:07:07.664Z,5.40
2019-03-17T03:09:35.650Z,5.40
2019-03-17T03:12:03.597Z,5.30
2019-03-17T03:14:32.005Z,5.30
2019-03-17T03:16:59.885Z,5.30
2019-03-17T03:19:28.501Z,5.30
2019-03-17T03:21:56.336Z,5.30
2019-03-17T03:24:24.384Z,5.20
2019-03-17T03:26:52.058Z,5.10
2019-03-17T03:29:19.834Z,5.00
2019-03-17T03:31:47.879Z,4.90
2019-03-17T03:34:15.850Z,4.80
2019-03-17T03:36:44.675Z,4.80
2019-03-17T03:39:37.234Z,4.70
2019-03-17T03:42:20.311Z,4.70
2019-03-17T03:44:48.611Z,4.70
2019-03-17T03:47:16.895Z,4.60
2019-03-17T03:49:45.271Z,4.70
2019-03-17T03:52:16.768Z,4.70
2019-03-17T03:54:44.392Z,4.60
2019-03-17T03:57:13.895Z,4.60
2019-03-17T03:59:41.846Z,4.60
2019-03-17T04:02:10.886Z,4.70
2019-03-17T04:04:38.457Z,4.60
2019-03-17T04:07:06.271Z,4.50
2019-03-17T04:09:37.446Z,4.60
2019-03-17T04:12:06.773Z,4.50
2019-03-17T04:14:36.352Z,4.50
2019-03-17T04:17:04.713Z,4.60
2019-03-17T04:19:32.751Z,4.60
2019-03-17T04:22:07.439Z,4.60
2019-03-17T04:24:36.264Z,4.50
2019-03-17T04:27:04.265Z,4.50
2019-03-17T04:29:32.050Z,4.30
2019-03-17T04:32:00.050Z,4.30
2019-03-17T04:34:27.931Z,4.20
2019-03-17T04:36:55.919Z,4.30
2019-03-17T04:39:23.581Z,4.30
2019-03-17T04:41:51.765Z,4.20
2019-03-17T04:44:21.074Z,4.20
2019-03-17T04:46:49.328Z,4.30
2019-03-17T04:49:17.305Z,4.20
2019-03-17T04:51:45.382Z,4.20
2019-03-17T04:54:13.190Z,4.10
2019-03-17T04:56:40.982Z,4.10
2019-03-17T04:59:08.917Z,4.10
2019-03-17T05:01:37.038Z,4.20
2019-03-17T05:04:05.161Z,4.10
2019-03-17T05:06:34.146Z,4.10
2019-03-17T05:09:01.850Z,4.10
2019-03-17T05:11:29.787Z,3.90
2019-03-17T05:13:57.800Z,3.90
2019-03-17T05:16:25.645Z,3.80
2019-03-17T05:18:53.397Z,3.90
2019-03-17T05:21:21.065Z,3.90
2019-03-17T05:23:49.048Z,3.90
2019-03-17T05:26:16.813Z,4.00
2019-03-17T05:28:44.857Z,3.90
2019-03-17T05:31:13.279Z,4.00
2019-03-17T05:33:41.582Z,4.00
2019-03-17T05:36:09.987Z,4.00
2019-03-17T05:38:39.203Z,3.90
2019-03-17T05:41:07.593Z,3.80
2019-03-17T05:43:35.945Z,3.80
2019-03-17T05:46:04.978Z,3.80
2019-03-17T05:48:33.359Z,3.90
2019-03-17T05:51:01.319Z,4.00
2019-03-17T05:53:29.182Z,4.00
2019-03-17T05:55:57.198Z,3.90
2019-03-17T05:58:24.778Z,3.90
2019-03-17T06:00:52.658Z,3.90
2019-03-17T06:03:20.492Z,3.80
2019-03-17T06:05:48.402Z,3.80
2019-03-17T06:08:16.457Z,3.80
2019-03-17T06:10:44.209Z,3.90
2019-03-17T06:13:12.153Z,4.00
2019-03-17T06:15:45.727Z,4.00
2019-03-17T06:18:16.337Z,4.30
2019-03-17T06:20:44.623Z,4.50
2019-03-17T06:23:18.784Z,4.60
2019-03-17T06:25:59.979Z,4.90
2019-03-17T06:28:27.993Z,5.10
2019-03-17T06:31:07.823Z,5.30
2019-03-17T06:33:48.469Z,5.50
2019-03-17T06:36:19.447Z,5.80
2019-03-17T06:38:57.988Z,6.00
2019-03-17T06:41:31.594Z,6.00
2019-03-17T06:44:12.432Z,6.10
2019-03-17T06:46:42.875Z,6.10
2019-03-17T06:49:10.590Z,6.20
2019-03-17T06:51:38.420Z,6.20
2019-03-17T06:54:06.060Z,6.20
2019-03-17T06:56:36.986Z,6.30
2019-03-17T06:59:04.407Z,6.40
2019-03-17T07:01:44.831Z,6.50
2019-03-17T07:04:23.322Z,6.60
2019-03-17T07:06:51.341Z,6.60
2019-03-17T07:09:24.293Z,6.60
2019-03-17T07:11:52.053Z,6.50
2019-03-17T07:14:20.391Z,6.80
2019-03-17T07:16:48.496Z,7.00
2019-03-17T07:19:16.248Z,7.20
2019-03-17T07:21:44.061Z,7.30
2019-03-17T07:24:13.750Z,7.50
2019-03-17T07:26:41.607Z,7.80
2019-03-17T07:29:18.187Z,7.90
2019-03-17T07:31:50.376Z,8.00
2019-03-17T07:34:22.341Z,8.00
2019-03-17T07:36:53.832Z,8.20
2019-03-17T07:39:24.831Z,8.50
2019-03-17T07:41:58.517Z,8.90
2019-03-17T07:44:33.432Z,9.40
2019-03-17T07:47:51.237Z,9.90
2019-03-17T07:50:23.104Z,10.40
2019-03-17T07:53:50.681Z,11.00
2019-03-17T08:00:01.140Z,12.00
2019-03-17T08:02:34.137Z,12.50
2019-03-17T08:06:08.966Z,13.10
2019-03-17T08:09:25.451Z,13.40
2019-03-17T08:12:47.473Z,13.70
2019-03-17T08:15:16.089Z,13.80
2019-03-17T08:18:05.534Z,13.80
2019-03-17T08:21:00.735Z,14.00
2019-03-17T08:23:38.503Z,14.40
2019-03-17T08:26:38.962Z,14.70
2019-03-17T08:29:16.050Z,15.00
2019-03-17T08:31:48.674Z,15.40
2019-03-17T08:34:37.468Z,15.60
2019-03-17T08:37:27.499Z,15.80
2019-03-17T08:40:11.205Z,16.10
2019-03-17T08:42:39.513Z,16.40
2019-03-17T08:45:10.564Z,16.50
2019-03-17T08:47:41.338Z,16.60
2019-03-17T08:50:10.900Z,16.80
2019-03-17T08:52:39.070Z,17.00
2019-03-17T08:55:10.277Z,17.10
2019-03-17T08:58:00.061Z,17.30
2019-03-17T09:00:36.000Z,17.40
2019-03-17T09:03:11.462Z,17.30
2019-03-17T09:06:06.373Z,17.40
2019-03-17T09:08:36.328Z,17.50
2019-03-17T09:11:07.626Z,17.50
2019-03-17T09:13:41.259Z,17.60
2019-03-17T09:16:11.222Z,17.70
2019-03-17T09:18:41.989Z,17.80
2019-03-17T09:21:10.861Z,18.00
2019-03-17T09:23:42.547Z,18.30
2019-03-17T09:26:16.703Z,18.50
2019-03-17T09:28:46.777Z,18.70
2019-03-17T09:31:27.039Z,18.50
2019-03-17T09:34:01.427Z,18.20
2019-03-17T09:36:45.678Z,18.10
2019-03-17T09:39:15.956Z,18.20
2019-03-17T09:41:56.127Z,18.30
2019-03-17T09:44:49.946Z,18.40
2019-03-17T09:47:46.211Z,18.40
2019-03-17T09:50:18.250Z,18.40
2019-03-17T09:52:50.593Z,18.30
2019-03-17T09:56:11.379Z,18.40
2019-03-17T09:59:08.371Z,18.50
2019-03-17T10:02:43.633Z,18.50
2019-03-17T10:06:00.374Z,18.50
2019-03-17T10:08:31.441Z,18.50
2019-03-17T10:11:00.451Z,18.70
2019-03-17T10:13:39.909Z,18.90
2019-03-17T10:16:17.519Z,19.20
2019-03-17T10:18:59.124Z,19.10
2019-03-17T10:21:36.011Z,19.20
2019-03-17T10:24:14.029Z,19.40
2019-03-17T10:26:45.606Z,19.60
2019-03-17T10:29:19.363Z,19.60
2019-03-17T10:31:50.050Z,19.50
2019-03-17T10:34:36.873Z,19.40
2019-03-17T10:37:09.722Z,19.40
2019-03-17T10:39:40.870Z,19.40
2019-03-17T10:42:26.529Z,19.60
2019-03-17T10:45:01.620Z,19.60
2019-03-17T10:47:39.054Z,19.80
2019-03-17T10:50:12.382Z,19.90
2019-03-17T10:52:50.825Z,19.80
2019-03-17T10:55:25.953Z,19.60
2019-03-17T10:57:59.345Z,19.60
2019-03-17T11:00:29.306Z,19.60
2019-03-17T11:03:04.706Z,19.70
2019-03-17T11:06:37.522Z,19.80
2019-03-17T11:09:03.952Z,19.90
2019-03-17T11:12:34.572Z,19.80
2019-03-17T11:15:46.800Z,19.70
2019-03-17T11:18:55.066Z,19.70
2019-03-17T11:21:22.926Z,19.50
2019-03-17T11:23:50.820Z,19.20
2019-03-17T11:26:19.738Z,19.20
2019-03-17T11:28:49.273Z,19.10
2019-03-17T11:31:17.085Z,18.90
2019-03-17T11:33:44.789Z,18.80
2019-03-17T11:36:15.303Z,18.50
2019-03-17T11:38:42.961Z,18.50
2019-03-17T11:41:12.169Z,18.50
2019-03-17T11:43:50.284Z,18.60
2019-03-17T11:46:18.242Z,18.60
2019-03-17T11:48:46.155Z,18.50
2019-03-17T11:51:13.861Z,18.40
2019-03-17T11:53:42.035Z,18.40
2019-03-17T11:56:10.017Z,18.50
2019-03-17T11:58:38.429Z,18.40
2019-03-17T12:01:09.616Z,18.40
2019-03-17T12:03:39.516Z,18.50
2019-03-17T12:06:10.679Z,18.50
2019-03-17T12:08:38.448Z,18.50
2019-03-17T12:11:12.346Z,18.60
2019-03-17T12:13:42.219Z,18.70
2019-03-17T12:16:09.978Z,18.80
2019-03-17T12:18:37.744Z,18.60
2019-03-17T12:21:11.439Z,18.80
2019-03-17T12:23:39.156Z,18.80
2019-03-17T12:26:07.005Z,18.80
2019-03-17T12:28:38.236Z,18.70
2019-03-17T12:31:05.994Z,18.70
2019-03-17T12:33:33.779Z,18.70
2019-03-17T12:36:06.322Z,18.70
2019-03-17T12:38:42.840Z,18.50
2019-03-17T12:41:11.126Z,18.50
2019-03-17T12:43:47.913Z,18.40
2019-03-17T12:46:16.113Z,18.20
2019-03-17T12:48:47.917Z,18.20
2019-03-17T12:51:15.531Z,18.10
2019-03-17T12:53:43.805Z,17.80
2019-03-17T12:56:14.821Z,17.80
2019-03-17T12:58:42.775Z,17.60
2019-03-17T13:02:09.071Z,17.40
2019-03-17T13:16:50.138Z,17.10
2019-03-17T13:32:38.930Z,16.70
2019-03-17T13:43:35.489Z,16.20
2019-03-17T13:46:35.544Z,16.10
2019-03-17T13:58:05.673Z,15.70
2019-03-17T14:07:32.957Z,15.10
2019-03-17T14:10:18.843Z,14.30
2019-03-17T14:13:29.141Z,13.40
2019-03-17T14:16:18.837Z,12.50
2019-03-17T14:18:50.681Z,11.90
2019-03-17T14:21:50.284Z,11.30
2019-03-17T14:24:18.383Z,11.10
2019-03-17T14:26:57.859Z,10.80
2019-03-17T14:29:27.692Z,10.50
2019-03-17T14:32:56.185Z,10.40
2019-03-17T14:36:30.631Z,10.20
2019-03-17T14:50:34.166Z,9.60
2019-03-17T14:53:14.441Z,9.40
2019-03-17T14:56:32.431Z,9.30
2019-03-17T15:06:25.357Z,9.00
2019-03-17T15:17:41.024Z,8.70
2019-03-17T15:20:58.357Z,8.60
2019-03-17T15:27:05.536Z,8.50
2019-03-17T15:37:08.981Z,8.40
2019-03-17T15:39:37.176Z,8.10
2019-03-17T15:42:06.404Z,8.00
2019-03-17T15:44:34.194Z,7.90
2019-03-17T15:47:23.282Z,7.80
2019-03-17T15:49:51.186Z,7.80
2019-03-17T15:52:19.493Z,7.80
2019-03-17T15:54:50.242Z,7.90
2019-03-17T15:57:23.517Z,7.80
2019-03-17T15:59:51.941Z,7.70
2019-03-17T16:02:20.147Z,7.80
2019-03-17T16:04:50.786Z,7.70
2019-03-17T16:07:18.838Z,7.70
2019-03-17T16:09:47.284Z,7.70
2019-03-17T16:12:15.539Z,7.70
2019-03-17T16:14:54.397Z,7.60
2019-03-17T16:17:22.453Z,7.70
2019-03-17T16:19:50.160Z,7.70
2019-03-17T16:22:28.477Z,7.70
2019-03-17T16:24:56.505Z,7.60
2019-03-17T16:27:25.260Z,7.60
2019-03-17T16:29:53.351Z,7.50
2019-03-17T16:32:21.717Z,7.50
2019-03-17T16:34:49.435Z,7.50
2019-03-17T16:37:17.288Z,7.60
2019-03-17T16:39:44.957Z,7.70
2019-03-17T16:42:13.043Z,7.60
2019-03-17T16:44:42.034Z,7.60
2019-03-17T16:47:10.682Z,7.60
2019-03-17T16:49:38.492Z,7.60
2019-03-17T16:52:06.407Z,7.60
2019-03-17T16:54:41.430Z,7.60
2019-03-17T16:57:12.591Z,7.70
2019-03-17T16:59:41.475Z,7.70
2019-03-17T17:02:12.415Z,7.70
2019-03-17T17:04:40.829Z,7.80
2019-03-17T17:07:08.913Z,7.70
2019-03-17T17:09:37.655Z,7.90
2019-03-17T17:12:05.829Z,7.90
2019-03-17T17:14:33.850Z,7.90
2019-03-17T17:17:01.971Z,7.90
2019-03-17T17:19:31.112Z,7.80
2019-03-17T17:22:08.273Z,7.70
2019-03-17T17:24:36.346Z,7.70
2019-03-17T17:27:07.349Z,7.80
2019-03-17T17:29:35.878Z,7.60
2019-03-17T17:32:04.561Z,7.60
2019-03-17T17:34:32.839Z,7.50
2019-03-17T17:37:01.429Z,7.50
2019-03-17T17:40:17.317Z,7.40
2019-03-17T17:42:47.667Z,7.40
2019-03-17T17:45:19.041Z,7.30
2019-03-17T17:47:46.963Z,7.50
2019-03-17T17:50:15.680Z,7.50
2019-03-17T17:52:43.453Z,7.50
2019-03-17T17:55:11.244Z,7.50
2019-03-17T17:57:39.164Z,7.50
2019-03-17T18:00:07.897Z,7.40
2019-03-17T18:02:40.732Z,7.50
2019-03-17T18:05:09.006Z,7.50
2019-03-17T18:07:36.891Z,7.40
2019-03-17T18:10:05.038Z,7.40
2019-03-17T18:12:59.266Z,7.40
2019-03-17T18:15:27.095Z,7.40
2019-03-17T18:17:54.622Z,7.10
2019-03-17T18:20:22.131Z,7.10
2019-03-17T18:22:50.748Z,7.20
2019-03-17T18:25:19.134Z,7.20
2019-03-17T18:27:46.751Z,7.20
2019-03-17T18:30:15.159Z,7.10
2019-03-17T18:32:42.668Z,7.20
2019-03-17T18:35:13.320Z,7.20
2019-03-17T18:37:41.062Z,7.20
2019-03-17T18:40:10.208Z,7.30
2019-03-17T18:42:37.768Z,7.20
2019-03-17T18:45:05.704Z,7.20
2019-03-17T18:47:35.684Z,7.20
2019-03-17T18:50:06.218Z,7.20
2019-03-17T18:52:33.791Z,7.20
2019-03-17T18:55:01.891Z,7.50
2019-03-17T18:57:32.468Z,7.50
2019-03-17T19:00:00.131Z,7.30
2019-03-17T19:02:27.749Z,7.30
2019-03-17T19:05:00.733Z,7.20
2019-03-17T19:07:28.518Z,7.10
2019-03-17T19:09:56.129Z,7.10
2019-03-17T19:12:23.789Z,7.00
2019-03-17T19:14:51.457Z,7.00
2019-03-17T19:17:19.072Z,7.00
2019-03-17T19:19:49.010Z,6.90
2019-03-17T19:22:16.737Z,7.00
2019-03-17T19:24:49.821Z,7.00
2019-03-17T19:27:17.656Z,7.10
2019-03-17T19:29:53.636Z,7.20
2019-03-17T19:32:22.978Z,7.10
2019-03-17T19:34:51.524Z,7.20
2019-03-17T19:37:22.238Z,7.10
2019-03-17T19:39:54.909Z,7.10
2019-03-17T19:42:23.042Z,7.00
2019-03-17T19:44:50.534Z,6.90
2019-03-17T19:47:18.158Z,6.90
2019-03-17T19:49:46.162Z,7.00
2019-03-17T19:52:16.198Z,6.90
2019-03-17T19:54:45.449Z,6.90
2019-03-17T19:57:13.330Z,6.80
2019-03-17T19:59:41.031Z,6.80
2019-03-17T20:02:14.077Z,6.90
2019-03-17T20:04:43.595Z,6.90
2019-03-17T20:07:11.984Z,6.90
2019-03-17T20:09:48.250Z,6.90
2019-03-17T20:12:15.868Z,6.80
2019-03-17T20:14:43.517Z,6.80
2019-03-17T20:17:11.437Z,6.70
2019-03-17T20:19:39.303Z,6.80
2019-03-17T20:22:07.045Z,6.90
2019-03-17T20:24:34.621Z,6.90
2019-03-17T20:27:02.236Z,7.10
2019-03-17T20:29:29.997Z,7.10
2019-03-17T20:31:57.641Z,7.00
2019-03-17T20:34:25.304Z,7.00
2019-03-17T20:36:55.842Z,7.10
2019-03-17T20:39:38.107Z,7.20
2019-03-17T20:42:09.726Z,7.30
2019-03-17T20:44:37.511Z,7.40
2019-03-17T20:47:05.220Z,7.40
2019-03-17T20:49:32.733Z,7.30
2019-03-17T20:52:04.162Z,7.30
2019-03-17T20:54:35.617Z,7.20
2019-03-17T20:57:04.511Z,7.10
2019-03-17T20:59:32.284Z,7.10
2019-03-17T21:02:01.401Z,6.90
2019-03-17T21:04:30.628Z,6.80
2019-03-17T21:06:58.790Z,6.80
2019-03-17T21:09:27.624Z,6.80
2019-03-17T21:11:58.250Z,6.80
2019-03-17T21:14:25.961Z,6.80
2019-03-17T21:16:53.854Z,6.80
2019-03-17T21:19:29.992Z,6.90
2019-03-17T21:21:57.519Z,6.90
2019-03-17T21:24:26.212Z,6.90
2019-03-17T21:26:55.906Z,6.90
2019-03-17T21:29:25.593Z,6.90
2019-03-17T21:31:53.530Z,6.90
2019-03-17T21:34:21.432Z,6.80
2019-03-17T21:36:51.957Z,6.80
2019-03-17T21:39:25.228Z,6.70
2019-03-17T21:41:55.347Z,6.70
2019-03-17T21:44:25.845Z,6.70
2019-03-17T21:47:00.511Z,6.70
2019-03-17T21:49:33.997Z,6.70
2019-03-17T21:55:03.636Z,6.60
2019-03-17T21:57:36.694Z,6.50
2019-03-17T22:00:08.460Z,6.50
2019-03-17T22:02:40.470Z,6.50
2019-03-17T22:05:14.151Z,6.50
2019-03-17T22:07:50.675Z,6.50
2019-03-17T22:10:25.568Z,6.50
2019-03-17T22:12:59.253Z,6.50
2019-03-17T22:15:29.625Z,6.60
2019-03-17T22:17:57.300Z,6.70
2019-03-17T22:20:30.631Z,6.80
2019-03-17T22:22:58.157Z,6.70
2019-03-17T22:25:28.477Z,6.60
2019-03-17T22:28:08.126Z,6.50
2019-03-17T22:30:30.268Z,6.50
2019-03-17T22:32:57.993Z,6.50
2019-03-17T22:35:25.838Z,6.40
2019-03-17T22:37:54.417Z,6.40
2019-03-17T22:40:26.934Z,6.40
2019-03-17T22:42:57.931Z,6.40
2019-03-17T22:45:26.707Z,6.30
2019-03-17T22:47:54.465Z,6.40
2019-03-17T22:50:26.483Z,6.50
2019-03-17T22:52:54.229Z,6.50
2019-03-17T22:55:22.456Z,6.40
2019-03-17T22:57:50.304Z,6.30
2019-03-17T23:00:21.193Z,6.20
2019-03-17T23:02:50.439Z,6.20
2019-03-17T23:05:19.851Z,6.10
2019-03-17T23:07:49.464Z,6.00
2019-03-17T23:10:17.014Z,6.10
2019-03-17T23:12:45.225Z,6.10
2019-03-17T23:15:12.947Z,6.10
2019-03-17T23:17:43.977Z,6.10
2019-03-17T23:20:12.101Z,6.10
2019-03-17T23:22:42.178Z,6.10
2019-03-17T23:25:11.244Z,6.20
2019-03-17T23:27:39.670Z,6.00
2019-03-17T23:30:08.030Z,6.10
2019-03-17T23:32:35.599Z,6.20
2019-03-17T23:35:03.531Z,6.10
2019-03-17T23:37:31.044Z,6.10
2019-03-17T23:40:00.397Z,6.10
2019-03-17T23:42:28.172Z,6.20
2019-03-17T23:44:58.043Z,6.10
2019-03-17T23:47:25.673Z,6.10
2019-03-17T23:49:53.333Z,6.10
2019-03-17T23:52:21.202Z,6.00
2019-03-17T23:54:48.713Z,5.90
2019-03-17T23:57:16.341Z,5.80
2019-03-17T23:59:43.966Z,5.80
